sensor_id;sensor_type;location;lat;lon;timestamp;P1;durP1;ratioP1;P2;durP2;ratioP2
71558;SDS011;59382;43.852;25.952;2022-12-07T00:01:10;21.70;;;9.43;;
71558;SDS011;59382;43.852;25.952;2022-12-07T00:03:41;23.05;;;10.20;;
71558;SDS011;59382;43.852;25.952;2022-12-07T00:06:08;20.08;;;9.50;;
71558;SDS011;59382;43.852;25.952;2022-12-07T00:08:35;19.58;;;8.55;;
71558;SDS011;59382;43.852;25.952;2022-12-07T00:11:02;22.42;;;7.38;;
71558;SDS011;59382;43.852;25.952;2022-12-07T00:13:28;18.92;;;7.93;;
71558;SDS011;59382;43.852;25.952;2022-12-07T00:15:55;19.10;;;8.18;;
71558;SDS011;59382;43.852;25.952;2022-12-07T00:18:20;16.42;;;9.23;;
71558;SDS011;59382;43.852;25.952;2022-12-07T00:20:46;15.27;;;8.25;;
71558;SDS011;59382;43.852;25.952;2022-12-07T00:23:11;18.58;;;8.75;;
71558;SDS011;59382;43.852;25.952;2022-12-07T00:25:37;19.15;;;8.90;;
71558;SDS011;59382;43.852;25.952;2022-12-07T00:28:05;21.35;;;8.65;;
71558;SDS011;59382;43.852;25.952;2022-12-07T00:30:31;18.17;;;8.38;;
71558;SDS011;59382;43.852;25.952;2022-12-07T00:32:57;17.92;;;8.50;;
71558;SDS011;59382;43.852;25.952;2022-12-07T00:35:23;17.60;;;8.52;;
71558;SDS011;59382;43.852;25.952;2022-12-07T00:37:48;18.23;;;8.95;;
71558;SDS011;59382;43.852;25.952;2022-12-07T00:40:14;18.48;;;8.75;;
71558;SDS011;59382;43.852;25.952;2022-12-07T00:42:39;16.77;;;7.47;;
71558;SDS011;59382;43.852;25.952;2022-12-07T00:45:05;19.63;;;8.63;;
71558;SDS011;59382;43.852;25.952;2022-12-07T00:47:31;23.05;;;8.80;;
71558;SDS011;59382;43.852;25.952;2022-12-07T00:49:56;20.90;;;8.45;;
71558;SDS011;59382;43.852;25.952;2022-12-07T00:52:23;20.67;;;8.65;;
71558;SDS011;59382;43.852;25.952;2022-12-07T00:54:48;17.65;;;8.02;;
71558;SDS011;59382;43.852;25.952;2022-12-07T00:57:14;18.05;;;9.05;;
71558;SDS011;59382;43.852;25.952;2022-12-07T00:59:39;17.38;;;8.75;;
71558;SDS011;59382;43.852;25.952;2022-12-07T01:02:05;22.35;;;8.60;;
71558;SDS011;59382;43.852;25.952;2022-12-07T01:04:32;18.52;;;8.93;;
71558;SDS011;59382;43.852;25.952;2022-12-07T01:06:59;19.67;;;8.98;;
71558;SDS011;59382;43.852;25.952;2022-12-07T01:09:26;19.42;;;9.43;;
71558;SDS011;59382;43.852;25.952;2022-12-07T01:11:52;15.82;;;8.80;;
71558;SDS011;59382;43.852;25.952;2022-12-07T01:14:17;17.80;;;8.63;;
71558;SDS011;59382;43.852;25.952;2022-12-07T01:16:43;20.00;;;9.38;;
71558;SDS011;59382;43.852;25.952;2022-12-07T01:19:08;20.02;;;9.00;;
71558;SDS011;59382;43.852;25.952;2022-12-07T01:21:34;20.15;;;9.52;;
71558;SDS011;59382;43.852;25.952;2022-12-07T01:24:01;24.17;;;10.35;;
71558;SDS011;59382;43.852;25.952;2022-12-07T01:26:27;18.27;;;8.93;;
71558;SDS011;59382;43.852;25.952;2022-12-07T01:28:53;19.20;;;9.88;;
71558;SDS011;59382;43.852;25.952;2022-12-07T01:31:21;17.27;;;8.85;;
71558;SDS011;59382;43.852;25.952;2022-12-07T01:33:49;19.73;;;9.43;;
71558;SDS011;59382;43.852;25.952;2022-12-07T01:36:18;19.92;;;9.73;;
71558;SDS011;59382;43.852;25.952;2022-12-07T01:38:44;16.88;;;8.55;;
71558;SDS011;59382;43.852;25.952;2022-12-07T01:41:13;20.98;;;9.38;;
71558;SDS011;59382;43.852;25.952;2022-12-07T01:46:43;20.98;;;9.18;;
71558;SDS011;59382;43.852;25.952;2022-12-07T01:49:18;15.63;;;8.32;;
71558;SDS011;59382;43.852;25.952;2022-12-07T01:51:52;18.58;;;8.70;;
71558;SDS011;59382;43.852;25.952;2022-12-07T01:54:23;18.48;;;8.95;;
71558;SDS011;59382;43.852;25.952;2022-12-07T01:56:51;16.45;;;8.55;;
71558;SDS011;59382;43.852;25.952;2022-12-07T01:59:19;18.52;;;8.15;;
71558;SDS011;59382;43.852;25.952;2022-12-07T02:01:47;17.40;;;8.68;;
71558;SDS011;59382;43.852;25.952;2022-12-07T02:04:13;16.50;;;8.77;;
71558;SDS011;59382;43.852;25.952;2022-12-07T02:06:39;18.27;;;9.18;;
71558;SDS011;59382;43.852;25.952;2022-12-07T02:09:06;20.58;;;8.40;;
71558;SDS011;59382;43.852;25.952;2022-12-07T02:11:32;18.92;;;8.35;;
71558;SDS011;59382;43.852;25.952;2022-12-07T02:14:01;20.67;;;9.10;;
71558;SDS011;59382;43.852;25.952;2022-12-07T02:16:33;15.95;;;7.75;;
71558;SDS011;59382;43.852;25.952;2022-12-07T02:21:51;23.35;;;8.93;;
71558;SDS011;59382;43.852;25.952;2022-12-07T02:27:23;21.58;;;9.18;;
71558;SDS011;59382;43.852;25.952;2022-12-07T02:30:22;23.45;;;9.48;;
71558;SDS011;59382;43.852;25.952;2022-12-07T02:35:51;17.73;;;8.55;;
71558;SDS011;59382;43.852;25.952;2022-12-07T02:41:25;29.73;;;10.85;;
71558;SDS011;59382;43.852;25.952;2022-12-07T02:44:00;24.55;;;10.98;;
71558;SDS011;59382;43.852;25.952;2022-12-07T02:46:38;26.67;;;11.18;;
71558;SDS011;59382;43.852;25.952;2022-12-07T02:49:08;23.90;;;10.82;;
71558;SDS011;59382;43.852;25.952;2022-12-07T02:51:38;22.63;;;11.25;;
71558;SDS011;59382;43.852;25.952;2022-12-07T02:54:14;23.25;;;10.18;;
71558;SDS011;59382;43.852;25.952;2022-12-07T02:59:48;28.30;;;10.88;;
71558;SDS011;59382;43.852;25.952;2022-12-07T03:02:58;28.05;;;10.48;;
71558;SDS011;59382;43.852;25.952;2022-12-07T03:11:13;29.25;;;10.68;;
71558;SDS011;59382;43.852;25.952;2022-12-07T03:16:20;23.38;;;10.00;;
71558;SDS011;59382;43.852;25.952;2022-12-07T03:18:57;24.50;;;10.32;;
71558;SDS011;59382;43.852;25.952;2022-12-07T03:21:27;26.65;;;11.82;;
71558;SDS011;59382;43.852;25.952;2022-12-07T03:23:58;25.20;;;9.43;;
71558;SDS011;59382;43.852;25.952;2022-12-07T03:26:32;25.95;;;10.10;;
71558;SDS011;59382;43.852;25.952;2022-12-07T03:29:08;28.67;;;10.75;;
71558;SDS011;59382;43.852;25.952;2022-12-07T03:31:40;27.65;;;10.05;;
71558;SDS011;59382;43.852;25.952;2022-12-07T03:34:24;20.58;;;9.57;;
71558;SDS011;59382;43.852;25.952;2022-12-07T03:37:20;27.38;;;10.50;;
71558;SDS011;59382;43.852;25.952;2022-12-07T03:40:03;24.77;;;10.23;;
71558;SDS011;59382;43.852;25.952;2022-12-07T03:42:35;28.35;;;10.48;;
71558;SDS011;59382;43.852;25.952;2022-12-07T03:45:01;26.38;;;11.07;;
71558;SDS011;59382;43.852;25.952;2022-12-07T03:47:32;24.65;;;10.50;;
71558;SDS011;59382;43.852;25.952;2022-12-07T03:50:14;32.13;;;10.88;;
71558;SDS011;59382;43.852;25.952;2022-12-07T03:52:58;33.58;;;10.82;;
71558;SDS011;59382;43.852;25.952;2022-12-07T03:55:34;29.80;;;10.20;;
71558;SDS011;59382;43.852;25.952;2022-12-07T03:58:05;26.80;;;10.98;;
71558;SDS011;59382;43.852;25.952;2022-12-07T04:00:37;28.38;;;10.48;;
71558;SDS011;59382;43.852;25.952;2022-12-07T04:03:03;34.00;;;11.55;;
71558;SDS011;59382;43.852;25.952;2022-12-07T04:05:28;31.95;;;11.48;;
71558;SDS011;59382;43.852;25.952;2022-12-07T04:07:54;28.23;;;10.88;;
71558;SDS011;59382;43.852;25.952;2022-12-07T04:10:20;30.80;;;11.95;;
71558;SDS011;59382;43.852;25.952;2022-12-07T04:12:45;27.38;;;11.48;;
71558;SDS011;59382;43.852;25.952;2022-12-07T04:15:11;27.45;;;10.80;;
71558;SDS011;59382;43.852;25.952;2022-12-07T04:17:37;36.85;;;12.30;;
71558;SDS011;59382;43.852;25.952;2022-12-07T04:20:04;25.65;;;10.90;;
71558;SDS011;59382;43.852;25.952;2022-12-07T04:22:30;26.95;;;11.02;;
71558;SDS011;59382;43.852;25.952;2022-12-07T04:24:56;26.20;;;10.68;;
71558;SDS011;59382;43.852;25.952;2022-12-07T04:27:21;21.45;;;10.23;;
71558;SDS011;59382;43.852;25.952;2022-12-07T04:29:49;23.73;;;10.25;;
71558;SDS011;59382;43.852;25.952;2022-12-07T04:32:15;27.00;;;11.18;;
71558;SDS011;59382;43.852;25.952;2022-12-07T04:34:42;23.77;;;11.23;;
71558;SDS011;59382;43.852;25.952;2022-12-07T04:37:07;30.70;;;13.02;;
71558;SDS011;59382;43.852;25.952;2022-12-07T04:39:36;26.55;;;11.35;;
71558;SDS011;59382;43.852;25.952;2022-12-07T04:42:02;27.48;;;10.85;;
71558;SDS011;59382;43.852;25.952;2022-12-07T04:44:28;27.13;;;12.60;;
71558;SDS011;59382;43.852;25.952;2022-12-07T04:46:54;23.70;;;10.27;;
71558;SDS011;59382;43.852;25.952;2022-12-07T04:49:20;26.52;;;11.57;;
71558;SDS011;59382;43.852;25.952;2022-12-07T04:51:47;25.25;;;11.18;;
71558;SDS011;59382;43.852;25.952;2022-12-07T04:54:13;28.15;;;10.60;;
71558;SDS011;59382;43.852;25.952;2022-12-07T04:56:40;23.65;;;11.65;;
71558;SDS011;59382;43.852;25.952;2022-12-07T04:59:06;23.40;;;10.95;;
71558;SDS011;59382;43.852;25.952;2022-12-07T05:01:32;29.85;;;11.63;;
71558;SDS011;59382;43.852;25.952;2022-12-07T05:04:01;27.65;;;10.85;;
71558;SDS011;59382;43.852;25.952;2022-12-07T05:06:27;26.77;;;12.07;;
71558;SDS011;59382;43.852;25.952;2022-12-07T05:08:53;27.95;;;12.52;;
71558;SDS011;59382;43.852;25.952;2022-12-07T05:11:18;24.48;;;10.77;;
71558;SDS011;59382;43.852;25.952;2022-12-07T05:16:34;28.17;;;11.90;;
71558;SDS011;59382;43.852;25.952;2022-12-07T05:18:59;23.80;;;10.25;;
71558;SDS011;59382;43.852;25.952;2022-12-07T05:21:25;27.00;;;11.40;;
71558;SDS011;59382;43.852;25.952;2022-12-07T05:23:51;31.02;;;12.05;;
71558;SDS011;59382;43.852;25.952;2022-12-07T05:26:16;25.85;;;11.93;;
71558;SDS011;59382;43.852;25.952;2022-12-07T05:28:45;34.15;;;11.50;;
71558;SDS011;59382;43.852;25.952;2022-12-07T05:31:14;30.42;;;12.52;;
71558;SDS011;59382;43.852;25.952;2022-12-07T05:33:40;25.00;;;11.63;;
71558;SDS011;59382;43.852;25.952;2022-12-07T05:36:05;29.20;;;11.75;;
71558;SDS011;59382;43.852;25.952;2022-12-07T05:38:32;28.35;;;11.10;;
71558;SDS011;59382;43.852;25.952;2022-12-07T05:41:05;27.60;;;12.02;;
71558;SDS011;59382;43.852;25.952;2022-12-07T05:43:33;25.95;;;11.60;;
71558;SDS011;59382;43.852;25.952;2022-12-07T05:45:59;22.58;;;11.00;;
71558;SDS011;59382;43.852;25.952;2022-12-07T05:48:25;31.02;;;14.18;;
71558;SDS011;59382;43.852;25.952;2022-12-07T05:50:50;27.08;;;12.77;;
71558;SDS011;59382;43.852;25.952;2022-12-07T05:53:17;29.70;;;11.95;;
71558;SDS011;59382;43.852;25.952;2022-12-07T05:55:43;23.17;;;11.52;;
71558;SDS011;59382;43.852;25.952;2022-12-07T05:58:09;26.27;;;11.38;;
71558;SDS011;59382;43.852;25.952;2022-12-07T06:00:56;26.40;;;12.27;;
71558;SDS011;59382;43.852;25.952;2022-12-07T06:03:21;24.92;;;12.90;;
71558;SDS011;59382;43.852;25.952;2022-12-07T06:05:47;25.13;;;11.45;;
71558;SDS011;59382;43.852;25.952;2022-12-07T06:08:12;23.67;;;11.00;;
71558;SDS011;59382;43.852;25.952;2022-12-07T06:10:39;25.65;;;10.88;;
71558;SDS011;59382;43.852;25.952;2022-12-07T06:13:06;28.85;;;12.00;;
71558;SDS011;59382;43.852;25.952;2022-12-07T06:15:32;27.40;;;11.95;;
71558;SDS011;59382;43.852;25.952;2022-12-07T06:17:58;24.98;;;10.65;;
71558;SDS011;59382;43.852;25.952;2022-12-07T06:20:26;22.95;;;10.43;;
71558;SDS011;59382;43.852;25.952;2022-12-07T06:22:53;23.83;;;10.85;;
71558;SDS011;59382;43.852;25.952;2022-12-07T06:25:18;20.42;;;10.30;;
71558;SDS011;59382;43.852;25.952;2022-12-07T06:27:43;24.98;;;10.82;;
71558;SDS011;59382;43.852;25.952;2022-12-07T06:30:10;19.75;;;9.27;;
71558;SDS011;59382;43.852;25.952;2022-12-07T06:32:39;18.05;;;9.82;;
71558;SDS011;59382;43.852;25.952;2022-12-07T06:35:04;19.85;;;10.45;;
71558;SDS011;59382;43.852;25.952;2022-12-07T06:37:30;17.98;;;10.15;;
71558;SDS011;59382;43.852;25.952;2022-12-07T06:39:56;21.10;;;9.32;;
71558;SDS011;59382;43.852;25.952;2022-12-07T06:42:21;22.33;;;10.35;;
71558;SDS011;59382;43.852;25.952;2022-12-07T06:44:47;17.83;;;8.00;;
71558;SDS011;59382;43.852;25.952;2022-12-07T06:47:15;17.40;;;8.32;;
71558;SDS011;59382;43.852;25.952;2022-12-07T06:49:41;13.35;;;8.10;;
71558;SDS011;59382;43.852;25.952;2022-12-07T06:52:06;17.02;;;8.15;;
71558;SDS011;59382;43.852;25.952;2022-12-07T06:54:32;14.68;;;7.68;;
71558;SDS011;59382;43.852;25.952;2022-12-07T06:56:57;13.20;;;7.63;;
71558;SDS011;59382;43.852;25.952;2022-12-07T06:59:23;13.35;;;8.18;;
71558;SDS011;59382;43.852;25.952;2022-12-07T07:01:48;13.98;;;7.53;;
71558;SDS011;59382;43.852;25.952;2022-12-07T07:04:14;17.85;;;8.57;;
71558;SDS011;59382;43.852;25.952;2022-12-07T07:06:41;15.00;;;8.40;;
71558;SDS011;59382;43.852;25.952;2022-12-07T07:09:06;12.35;;;6.90;;
71558;SDS011;59382;43.852;25.952;2022-12-07T07:11:32;11.75;;;7.10;;
71558;SDS011;59382;43.852;25.952;2022-12-07T07:13:57;17.02;;;7.50;;
71558;SDS011;59382;43.852;25.952;2022-12-07T07:16:28;17.92;;;8.35;;
71558;SDS011;59382;43.852;25.952;2022-12-07T07:18:55;15.07;;;8.80;;
71558;SDS011;59382;43.852;25.952;2022-12-07T07:21:21;14.02;;;7.95;;
71558;SDS011;59382;43.852;25.952;2022-12-07T07:23:47;15.77;;;8.43;;
71558;SDS011;59382;43.852;25.952;2022-12-07T07:26:12;17.30;;;7.95;;
71558;SDS011;59382;43.852;25.952;2022-12-07T07:28:38;17.73;;;8.52;;
71558;SDS011;59382;43.852;25.952;2022-12-07T07:31:04;14.05;;;8.32;;
71558;SDS011;59382;43.852;25.952;2022-12-07T07:33:29;16.88;;;8.82;;
71558;SDS011;59382;43.852;25.952;2022-12-07T07:35:55;18.48;;;9.02;;
71558;SDS011;59382;43.852;25.952;2022-12-07T07:38:23;19.38;;;8.68;;
71558;SDS011;59382;43.852;25.952;2022-12-07T07:40:48;17.42;;;9.10;;
71558;SDS011;59382;43.852;25.952;2022-12-07T07:43:14;14.85;;;8.13;;
71558;SDS011;59382;43.852;25.952;2022-12-07T07:45:39;29.08;;;9.07;;
71558;SDS011;59382;43.852;25.952;2022-12-07T07:48:05;16.52;;;8.27;;
71558;SDS011;59382;43.852;25.952;2022-12-07T07:50:34;17.30;;;9.50;;
71558;SDS011;59382;43.852;25.952;2022-12-07T07:52:59;17.00;;;8.10;;
71558;SDS011;59382;43.852;25.952;2022-12-07T07:55:28;14.90;;;7.80;;
71558;SDS011;59382;43.852;25.952;2022-12-07T07:57:54;13.40;;;7.93;;
71558;SDS011;59382;43.852;25.952;2022-12-07T08:00:22;14.98;;;7.95;;
71558;SDS011;59382;43.852;25.952;2022-12-07T08:02:48;17.30;;;9.52;;
71558;SDS011;59382;43.852;25.952;2022-12-07T08:05:14;12.75;;;6.60;;
71558;SDS011;59382;43.852;25.952;2022-12-07T08:07:42;16.50;;;7.55;;
71558;SDS011;59382;43.852;25.952;2022-12-07T08:10:09;14.27;;;7.47;;
71558;SDS011;59382;43.852;25.952;2022-12-07T08:12:38;11.88;;;7.35;;
71558;SDS011;59382;43.852;25.952;2022-12-07T08:15:26;16.60;;;8.18;;
71558;SDS011;59382;43.852;25.952;2022-12-07T08:17:53;15.55;;;8.02;;
71558;SDS011;59382;43.852;25.952;2022-12-07T08:20:19;13.60;;;7.60;;
71558;SDS011;59382;43.852;25.952;2022-12-07T08:22:45;14.07;;;8.00;;
71558;SDS011;59382;43.852;25.952;2022-12-07T08:25:11;12.50;;;7.45;;
71558;SDS011;59382;43.852;25.952;2022-12-07T08:27:36;12.52;;;7.57;;
71558;SDS011;59382;43.852;25.952;2022-12-07T08:30:02;15.05;;;7.78;;
71558;SDS011;59382;43.852;25.952;2022-12-07T08:32:28;13.48;;;7.93;;
71558;SDS011;59382;43.852;25.952;2022-12-07T08:34:53;14.55;;;7.30;;
71558;SDS011;59382;43.852;25.952;2022-12-07T08:37:19;16.67;;;8.02;;
71558;SDS011;59382;43.852;25.952;2022-12-07T08:39:47;11.75;;;6.93;;
71558;SDS011;59382;43.852;25.952;2022-12-07T08:42:12;15.18;;;8.15;;
71558;SDS011;59382;43.852;25.952;2022-12-07T08:44:38;15.45;;;7.82;;
71558;SDS011;59382;43.852;25.952;2022-12-07T08:47:07;16.50;;;8.80;;
71558;SDS011;59382;43.852;25.952;2022-12-07T08:49:38;16.85;;;9.02;;
71558;SDS011;59382;43.852;25.952;2022-12-07T08:52:07;13.95;;;8.00;;
71558;SDS011;59382;43.852;25.952;2022-12-07T08:54:33;13.20;;;8.05;;
71558;SDS011;59382;43.852;25.952;2022-12-07T08:57:01;17.98;;;9.82;;
71558;SDS011;59382;43.852;25.952;2022-12-07T08:59:33;16.75;;;8.48;;
71558;SDS011;59382;43.852;25.952;2022-12-07T09:02:02;16.88;;;8.40;;
71558;SDS011;59382;43.852;25.952;2022-12-07T09:04:29;16.10;;;8.05;;
71558;SDS011;59382;43.852;25.952;2022-12-07T09:06:56;16.08;;;9.77;;
71558;SDS011;59382;43.852;25.952;2022-12-07T09:09:23;17.63;;;9.10;;
71558;SDS011;59382;43.852;25.952;2022-12-07T09:11:49;21.67;;;9.98;;
71558;SDS011;59382;43.852;25.952;2022-12-07T09:14:14;18.13;;;9.10;;
71558;SDS011;59382;43.852;25.952;2022-12-07T09:16:40;13.88;;;9.05;;
71558;SDS011;59382;43.852;25.952;2022-12-07T09:19:11;15.98;;;9.07;;
71558;SDS011;59382;43.852;25.952;2022-12-07T09:21:37;18.45;;;9.20;;
71558;SDS011;59382;43.852;25.952;2022-12-07T09:26:49;16.90;;;9.23;;
71558;SDS011;59382;43.852;25.952;2022-12-07T09:29:20;13.52;;;8.30;;
71558;SDS011;59382;43.852;25.952;2022-12-07T09:31:51;14.63;;;7.78;;
71558;SDS011;59382;43.852;25.952;2022-12-07T09:34:19;13.40;;;8.48;;
71558;SDS011;59382;43.852;25.952;2022-12-07T09:36:46;20.88;;;9.25;;
71558;SDS011;59382;43.852;25.952;2022-12-07T09:39:18;12.50;;;7.03;;
71558;SDS011;59382;43.852;25.952;2022-12-07T09:41:44;14.63;;;7.80;;
71558;SDS011;59382;43.852;25.952;2022-12-07T09:44:14;14.70;;;7.63;;
71558;SDS011;59382;43.852;25.952;2022-12-07T09:46:49;13.38;;;7.97;;
71558;SDS011;59382;43.852;25.952;2022-12-07T09:49:20;9.40;;;6.40;;
71558;SDS011;59382;43.852;25.952;2022-12-07T09:51:57;9.75;;;6.13;;
71558;SDS011;59382;43.852;25.952;2022-12-07T09:54:27;12.50;;;7.45;;
71558;SDS011;59382;43.852;25.952;2022-12-07T09:56:55;10.63;;;6.85;;
71558;SDS011;59382;43.852;25.952;2022-12-07T09:59:20;10.02;;;7.15;;
71558;SDS011;59382;43.852;25.952;2022-12-07T10:01:48;11.20;;;6.90;;
71558;SDS011;59382;43.852;25.952;2022-12-07T10:06:43;12.40;;;7.57;;
71558;SDS011;59382;43.852;25.952;2022-12-07T10:09:11;10.40;;;6.78;;
71558;SDS011;59382;43.852;25.952;2022-12-07T10:14:34;15.25;;;8.02;;
71558;SDS011;59382;43.852;25.952;2022-12-07T10:17:02;10.10;;;6.95;;
71558;SDS011;59382;43.852;25.952;2022-12-07T10:19:30;12.43;;;6.93;;
71558;SDS011;59382;43.852;25.952;2022-12-07T10:22:03;9.95;;;6.20;;
71558;SDS011;59382;43.852;25.952;2022-12-07T10:24:34;11.07;;;6.45;;
71558;SDS011;59382;43.852;25.952;2022-12-07T10:27:02;13.30;;;7.03;;
71558;SDS011;59382;43.852;25.952;2022-12-07T10:34:39;10.70;;;6.57;;
71558;SDS011;59382;43.852;25.952;2022-12-07T10:37:15;11.98;;;7.43;;
71558;SDS011;59382;43.852;25.952;2022-12-07T10:39:44;11.48;;;6.88;;
71558;SDS011;59382;43.852;25.952;2022-12-07T10:44:50;9.57;;;7.10;;
71558;SDS011;59382;43.852;25.952;2022-12-07T10:55:23;12.88;;;8.65;;
71558;SDS011;59382;43.852;25.952;2022-12-07T10:58:05;14.32;;;9.45;;
71558;SDS011;59382;43.852;25.952;2022-12-07T11:06:27;11.98;;;7.07;;
71558;SDS011;59382;43.852;25.952;2022-12-07T11:12:06;15.10;;;8.25;;
71558;SDS011;59382;43.852;25.952;2022-12-07T11:19:55;11.82;;;7.82;;
71558;SDS011;59382;43.852;25.952;2022-12-07T11:28:38;13.02;;;7.82;;
71558;SDS011;59382;43.852;25.952;2022-12-07T11:34:08;14.35;;;6.95;;
71558;SDS011;59382;43.852;25.952;2022-12-07T11:36:52;25.90;;;8.65;;
71558;SDS011;59382;43.852;25.952;2022-12-07T11:39:23;18.83;;;9.40;;
71558;SDS011;59382;43.852;25.952;2022-12-07T11:42:19;27.83;;;9.65;;
71558;SDS011;59382;43.852;25.952;2022-12-07T11:47:59;17.75;;;11.70;;
71558;SDS011;59382;43.852;25.952;2022-12-07T12:03:47;17.15;;;9.20;;
71558;SDS011;59382;43.852;25.952;2022-12-07T12:06:17;13.85;;;8.48;;
71558;SDS011;59382;43.852;25.952;2022-12-07T12:08:50;14.25;;;8.75;;
71558;SDS011;59382;43.852;25.952;2022-12-07T12:20:26;22.45;;;10.35;;
71558;SDS011;59382;43.852;25.952;2022-12-07T12:26:01;18.27;;;8.57;;
71558;SDS011;59382;43.852;25.952;2022-12-07T12:28:38;15.25;;;9.15;;
71558;SDS011;59382;43.852;25.952;2022-12-07T12:33:49;15.73;;;9.75;;
71558;SDS011;59382;43.852;25.952;2022-12-07T12:46:49;16.38;;;10.10;;
71558;SDS011;59382;43.852;25.952;2022-12-07T12:51:57;19.55;;;11.32;;
71558;SDS011;59382;43.852;25.952;2022-12-07T12:55:29;16.23;;;9.77;;
71558;SDS011;59382;43.852;25.952;2022-12-07T12:57:32;21.13;;;11.10;;
71558;SDS011;59382;43.852;25.952;2022-12-07T13:00:02;16.48;;;9.05;;
71558;SDS011;59382;43.852;25.952;2022-12-07T13:02:54;16.70;;;10.05;;
71558;SDS011;59382;43.852;25.952;2022-12-07T13:05:22;19.80;;;9.93;;
71558;SDS011;59382;43.852;25.952;2022-12-07T13:15:34;17.23;;;10.88;;
71558;SDS011;59382;43.852;25.952;2022-12-07T13:26:09;15.75;;;9.93;;
71558;SDS011;59382;43.852;25.952;2022-12-07T13:28:41;17.63;;;10.38;;
71558;SDS011;59382;43.852;25.952;2022-12-07T13:33:49;20.63;;;11.98;;
71558;SDS011;59382;43.852;25.952;2022-12-07T13:36:17;21.70;;;11.95;;
71558;SDS011;59382;43.852;25.952;2022-12-07T13:38:49;22.17;;;10.60;;
71558;SDS011;59382;43.852;25.952;2022-12-07T13:41:35;21.40;;;12.30;;
71558;SDS011;59382;43.852;25.952;2022-12-07T13:49:15;31.70;;;17.08;;
71558;SDS011;59382;43.852;25.952;2022-12-07T13:52:06;37.55;;;15.20;;
71558;SDS011;59382;43.852;25.952;2022-12-07T13:54:54;25.52;;;13.57;;
71558;SDS011;59382;43.852;25.952;2022-12-07T13:57:20;23.50;;;12.68;;
71558;SDS011;59382;43.852;25.952;2022-12-07T13:59:47;31.42;;;16.88;;
71558;SDS011;59382;43.852;25.952;2022-12-07T14:05:05;31.45;;;16.27;;
71558;SDS011;59382;43.852;25.952;2022-12-07T14:07:55;23.52;;;15.13;;
71558;SDS011;59382;43.852;25.952;2022-12-07T14:13:03;29.85;;;16.05;;
71558;SDS011;59382;43.852;25.952;2022-12-07T14:15:49;27.70;;;15.55;;
71558;SDS011;59382;43.852;25.952;2022-12-07T14:21:30;27.10;;;15.48;;
71558;SDS011;59382;43.852;25.952;2022-12-07T14:24:09;28.48;;;15.50;;
71558;SDS011;59382;43.852;25.952;2022-12-07T14:26:49;32.88;;;16.65;;
71558;SDS011;59382;43.852;25.952;2022-12-07T14:29:22;33.10;;;15.00;;
71558;SDS011;59382;43.852;25.952;2022-12-07T14:31:51;36.75;;;17.73;;
71558;SDS011;59382;43.852;25.952;2022-12-07T14:34:19;26.45;;;14.52;;
71558;SDS011;59382;43.852;25.952;2022-12-07T14:36:46;32.58;;;15.75;;
71558;SDS011;59382;43.852;25.952;2022-12-07T14:39:13;32.90;;;14.82;;
71558;SDS011;59382;43.852;25.952;2022-12-07T14:41:38;32.03;;;15.13;;
71558;SDS011;59382;43.852;25.952;2022-12-07T14:44:21;38.13;;;17.27;;
71558;SDS011;59382;43.852;25.952;2022-12-07T14:46:51;38.20;;;17.85;;
71558;SDS011;59382;43.852;25.952;2022-12-07T14:49:29;33.88;;;16.70;;
71558;SDS011;59382;43.852;25.952;2022-12-07T14:51:54;30.98;;;15.57;;
71558;SDS011;59382;43.852;25.952;2022-12-07T14:54:20;34.97;;;16.98;;
71558;SDS011;59382;43.852;25.952;2022-12-07T14:56:52;35.67;;;16.38;;
71558;SDS011;59382;43.852;25.952;2022-12-07T14:59:19;35.03;;;17.52;;
71558;SDS011;59382;43.852;25.952;2022-12-07T15:01:44;33.47;;;16.48;;
71558;SDS011;59382;43.852;25.952;2022-12-07T15:04:10;44.10;;;19.83;;
71558;SDS011;59382;43.852;25.952;2022-12-07T15:06:36;43.55;;;19.77;;
71558;SDS011;59382;43.852;25.952;2022-12-07T15:09:04;43.17;;;20.67;;
71558;SDS011;59382;43.852;25.952;2022-12-07T15:11:31;42.05;;;20.85;;
71558;SDS011;59382;43.852;25.952;2022-12-07T15:14:05;47.60;;;22.48;;
71558;SDS011;59382;43.852;25.952;2022-12-07T15:17:10;30.42;;;17.63;;
71558;SDS011;59382;43.852;25.952;2022-12-07T15:19:54;37.92;;;15.70;;
71558;SDS011;59382;43.852;25.952;2022-12-07T15:25:18;34.33;;;16.00;;
71558;SDS011;59382;43.852;25.952;2022-12-07T15:27:46;39.78;;;17.02;;
71558;SDS011;59382;43.852;25.952;2022-12-07T15:30:45;33.92;;;16.38;;
71558;SDS011;59382;43.852;25.952;2022-12-07T15:33:13;41.42;;;17.00;;
71558;SDS011;59382;43.852;25.952;2022-12-07T15:35:39;35.83;;;16.73;;
71558;SDS011;59382;43.852;25.952;2022-12-07T15:38:06;32.85;;;16.38;;
71558;SDS011;59382;43.852;25.952;2022-12-07T15:40:32;34.17;;;18.63;;
71558;SDS011;59382;43.852;25.952;2022-12-07T15:42:57;33.83;;;17.77;;
71558;SDS011;59382;43.852;25.952;2022-12-07T15:45:23;30.58;;;17.20;;
71558;SDS011;59382;43.852;25.952;2022-12-07T15:47:48;34.03;;;17.80;;
71558;SDS011;59382;43.852;25.952;2022-12-07T15:50:14;41.35;;;19.95;;
71558;SDS011;59382;43.852;25.952;2022-12-07T15:52:41;41.10;;;22.67;;
71558;SDS011;59382;43.852;25.952;2022-12-07T15:55:07;45.28;;;21.58;;
71558;SDS011;59382;43.852;25.952;2022-12-07T15:57:35;33.50;;;19.00;;
71558;SDS011;59382;43.852;25.952;2022-12-07T16:00:02;42.20;;;19.83;;
71558;SDS011;59382;43.852;25.952;2022-12-07T16:02:34;41.35;;;19.27;;
71558;SDS011;59382;43.852;25.952;2022-12-07T16:05:01;36.97;;;17.92;;
71558;SDS011;59382;43.852;25.952;2022-12-07T16:07:26;35.83;;;16.75;;
71558;SDS011;59382;43.852;25.952;2022-12-07T16:09:52;36.10;;;16.75;;
71558;SDS011;59382;43.852;25.952;2022-12-07T16:12:17;31.77;;;16.60;;
71558;SDS011;59382;43.852;25.952;2022-12-07T16:14:46;33.20;;;14.82;;
71558;SDS011;59382;43.852;25.952;2022-12-07T16:17:12;34.08;;;16.50;;
71558;SDS011;59382;43.852;25.952;2022-12-07T16:19:37;30.92;;;15.85;;
71558;SDS011;59382;43.852;25.952;2022-12-07T16:22:03;34.78;;;17.45;;
71558;SDS011;59382;43.852;25.952;2022-12-07T16:24:30;31.52;;;15.13;;
71558;SDS011;59382;43.852;25.952;2022-12-07T16:26:56;26.02;;;14.45;;
71558;SDS011;59382;43.852;25.952;2022-12-07T16:29:22;32.92;;;14.88;;
71558;SDS011;59382;43.852;25.952;2022-12-07T16:31:48;30.35;;;14.73;;
71558;SDS011;59382;43.852;25.952;2022-12-07T16:34:14;35.40;;;17.95;;
71558;SDS011;59382;43.852;25.952;2022-12-07T16:36:39;32.30;;;15.68;;
71558;SDS011;59382;43.852;25.952;2022-12-07T16:39:05;37.42;;;17.00;;
71558;SDS011;59382;43.852;25.952;2022-12-07T16:41:31;34.78;;;17.15;;
71558;SDS011;59382;43.852;25.952;2022-12-07T16:43:57;31.95;;;16.80;;
71558;SDS011;59382;43.852;25.952;2022-12-07T16:46:31;37.13;;;15.85;;
71558;SDS011;59382;43.852;25.952;2022-12-07T16:48:58;31.40;;;15.98;;
71558;SDS011;59382;43.852;25.952;2022-12-07T16:51:23;32.55;;;14.98;;
71558;SDS011;59382;43.852;25.952;2022-12-07T16:53:52;32.97;;;16.48;;
71558;SDS011;59382;43.852;25.952;2022-12-07T16:56:18;36.83;;;16.55;;
71558;SDS011;59382;43.852;25.952;2022-12-07T16:58:44;30.08;;;15.10;;
71558;SDS011;59382;43.852;25.952;2022-12-07T17:01:15;40.25;;;17.60;;
71558;SDS011;59382;43.852;25.952;2022-12-07T17:03:46;32.67;;;16.50;;